Time;durP1;ratioP1;P1;durP2;ratioP2;P2;SDS_P1;SDS_P2;PMS_P1;PMS_P2;Temp;Humidity;BMP_temperature;BMP_pressure;BME280_temperature;BME280_humidity;BME280_pressure;Samples;Min_cycle;Max_cycle;Signal;HPM_P1;HPM_P2
2024/01/18 00:00:32;;;;;;;19.67;17.20;;;-1.10;77.30;;;;;;6231889;28;20368;-78
2024/01/18 00:03:38;;;;;;;24.30;17.73;;;-1.10;77.30;;;;;;6224386;28;20239;-80
2024/01/18 00:06:42;;;;;;;24.30;19.87;;;-1.10;77.20;;;;;;6243534;28;20239;-79
2024/01/18 00:09:45;;;;;;;21.20;17.40;;;-1.20;77.20;;;;;;6217186;28;20365;-79
2024/01/18 00:12:49;;;;;;;22.10;18.23;;;-1.10;76.80;;;;;;6231371;28;20235;-81
2024/01/18 00:15:53;;;;;;;22.53;17.33;;;-1.10;76.80;;;;;;6223095;28;20306;-79
2024/01/18 00:18:59;;;;;;;19.37;17.10;;;-1.10;76.70;;;;;;6234783;28;20231;-79
2024/01/18 00:22:03;;;;;;;23.70;18.00;;;-1.10;76.50;;;;;;6231184;28;20722;-78
2024/01/18 00:25:07;;;;;;;23.03;17.83;;;-1.10;76.50;;;;;;6225226;28;20278;-81
2024/01/18 00:28:11;;;;;;;20.80;17.50;;;-1.20;76.70;;;;;;6231230;28;20263;-81
2024/01/18 00:31:14;;;;;;;22.33;17.70;;;-1.10;76.70;;;;;;6229440;28;20735;-79
2024/01/18 00:34:18;;;;;;;22.53;16.87;;;-1.10;76.40;;;;;;6218550;28;20248;-79
2024/01/18 00:37:21;;;;;;;20.70;17.23;;;-1.10;76.40;;;;;;6220949;28;20238;-79
2024/01/18 00:40:24;;;;;;;21.80;17.23;;;-1.10;76.30;;;;;;6231224;28;20714;-80
2024/01/18 00:43:29;;;;;;;23.87;18.77;;;-1.10;76.50;;;;;;6257723;28;20620;-79
2024/01/18 00:46:32;;;;;;;22.83;17.73;;;-1.20;76.50;;;;;;6243061;28;20523;-82
2024/01/18 00:49:35;;;;;;;23.87;17.53;;;-1.10;76.60;;;;;;6252132;28;20230;-80
2024/01/18 00:52:38;;;;;;;21.87;17.67;;;-1.10;76.30;;;;;;6252921;28;20241;-81
2024/01/18 00:55:41;;;;;;;23.83;18.50;;;-1.10;76.30;;;;;;6254656;28;20714;-79
2024/01/18 00:58:46;;;;;;;22.17;18.40;;;-1.10;76.20;;;;;;6245746;28;20606;-79
2024/01/18 01:01:49;;;;;;;25.70;18.83;;;-1.10;76.10;;;;;;6244952;28;20242;-80
2024/01/18 01:04:52;;;;;;;28.80;19.60;;;-1.10;75.90;;;;;;6261920;28;20288;-81
2024/01/18 01:07:55;;;;;;;24.77;18.60;;;-1.10;76.00;;;;;;6246956;28;20235;-79
2024/01/18 01:10:58;;;;;;;22.17;18.43;;;-1.10;75.90;;;;;;6259827;28;20238;-81
2024/01/18 01:14:03;;;;;;;22.63;18.33;;;-1.10;76.00;;;;;;6254082;28;20254;-80
2024/01/18 01:17:06;;;;;;;21.93;18.50;;;-1.10;76.10;;;;;;6261981;28;20230;-79
2024/01/18 01:20:10;;;;;;;27.53;19.63;;;-1.10;76.20;;;;;;6244738;28;20230;-79
2024/01/18 01:23:13;;;;;;;27.40;19.87;;;-1.10;76.00;;;;;;6282299;28;20297;-79
2024/01/18 01:26:17;;;;;;;22.60;18.23;;;-1.10;76.00;;;;;;6274151;28;20230;-82
2024/01/18 01:29:21;;;;;;;26.53;18.87;;;-1.20;75.50;;;;;;6281762;28;20229;-76
2024/01/18 01:32:24;;;;;;;26.90;19.27;;;-1.20;75.30;;;;;;6268740;28;20246;-78
2024/01/18 01:35:27;;;;;;;23.70;17.97;;;-1.20;75.20;;;;;;6284027;28;20242;-76
2024/01/18 01:38:31;;;;;;;24.40;19.13;;;-1.20;74.70;;;;;;6273188;28;20257;-79
2024/01/18 01:41:34;;;;;;;23.73;18.90;;;-1.20;74.70;;;;;;6279692;28;20252;-78
2024/01/18 01:44:39;;;;;;;23.43;18.70;;;-1.20;74.40;;;;;;6270014;28;20268;-79
2024/01/18 01:47:44;;;;;;;23.90;19.43;;;-1.20;74.30;;;;;;6279421;28;20292;-77
2024/01/18 01:50:48;;;;;;;21.60;18.07;;;-1.20;74.10;;;;;;6291770;28;20285;-78
2024/01/18 01:53:52;;;;;;;27.50;19.77;;;-1.30;74.20;;;;;;6286829;28;20246;-78
2024/01/18 01:56:55;;;;;;;24.93;18.70;;;-1.30;74.00;;;;;;6295329;28;20214;-78
2024/01/18 02:00:00;;;;;;;24.97;18.37;;;-1.30;74.30;;;;;;6287163;28;20229;-79
2024/01/18 02:03:05;;;;;;;21.70;17.87;;;-1.30;74.20;;;;;;6261214;28;20417;-78
2024/01/18 02:06:09;;;;;;;24.30;17.97;;;-1.30;74.20;;;;;;6287478;28;20247;-76
2024/01/18 02:09:13;;;;;;;20.83;18.13;;;-1.30;74.00;;;;;;6277984;28;20230;-79
2024/01/18 02:12:16;;;;;;;25.37;18.10;;;-1.30;74.10;;;;;;6294348;28;20272;-77
2024/01/18 02:15:21;;;;;;;21.80;17.30;;;-1.30;73.90;;;;;;6287225;28;20221;-79
2024/01/18 02:18:25;;;;;;;22.07;18.30;;;-1.30;73.90;;;;;;6280585;28;20255;-76
2024/01/18 02:21:28;;;;;;;24.43;18.47;;;-1.20;73.80;;;;;;6284502;28;20226;-77
2024/01/18 02:24:36;;;;;;;21.37;17.73;;;-1.20;73.40;;;;;;6289393;28;20237;-78
2024/01/18 02:27:42;;;;;;;21.03;17.87;;;-1.20;73.20;;;;;;6286244;28;20246;-77
2024/01/18 02:30:47;;;;;;;24.27;18.30;;;-1.20;73.10;;;;;;6289761;28;20227;-78
2024/01/18 02:33:51;;;;;;;22.30;18.03;;;-1.20;73.10;;;;;;6296316;28;20226;-80
2024/01/18 02:36:55;;;;;;;22.23;17.77;;;-1.30;72.90;;;;;;6281903;28;20213;-80
2024/01/18 02:39:58;;;;;;;25.27;17.47;;;-1.20;73.00;;;;;;6281207;28;20329;-79
2024/01/18 02:43:03;;;;;;;23.30;16.63;;;-1.20;73.10;;;;;;6297441;28;20234;-77
2024/01/18 02:46:06;;;;;;;19.27;17.17;;;-1.20;73.00;;;;;;6291365;28;20230;-78
2024/01/18 02:49:09;;;;;;;20.80;17.90;;;-1.20;73.00;;;;;;6274144;28;20236;-79
2024/01/18 02:52:12;;;;;;;23.37;17.00;;;-1.10;72.50;;;;;;6293657;28;20225;-79
2024/01/18 02:55:17;;;;;;;26.30;17.70;;;-1.20;72.60;;;;;;6289363;28;20225;-78
2024/01/18 02:58:22;;;;;;;23.73;17.97;;;-1.20;72.90;;;;;;6289897;28;20225;-78
2024/01/18 03:01:25;;;;;;;21.10;17.43;;;-1.30;72.90;;;;;;6270987;28;21037;-80
2024/01/18 03:04:28;;;;;;;25.50;18.27;;;-1.30;73.00;;;;;;6266140;28;20245;-82
2024/01/18 03:07:31;;;;;;;21.23;18.03;;;-1.30;73.00;;;;;;6267664;28;20253;-80
2024/01/18 03:10:34;;;;;;;20.97;18.23;;;-1.20;72.80;;;;;;6226325;28;20248;-77
2024/01/18 03:13:39;;;;;;;22.23;17.67;;;-1.30;72.90;;;;;;6258822;28;20262;-78
2024/01/18 03:16:42;;;;;;;23.47;17.83;;;-1.30;72.60;;;;;;6251295;28;20241;-78
2024/01/18 03:19:46;;;;;;;22.10;17.77;;;-1.30;72.80;;;;;;6249393;28;20241;-79
2024/01/18 03:22:49;;;;;;;22.53;18.70;;;-1.20;72.70;;;;;;6245526;28;20778;-80
2024/01/18 03:25:52;;;;;;;23.23;17.87;;;-1.30;72.80;;;;;;6250517;28;20707;-78
2024/01/18 03:28:56;;;;;;;23.87;18.40;;;-1.30;73.20;;;;;;6254568;28;20721;-81
2024/01/18 03:31:59;;;;;;;25.80;19.07;;;-1.30;73.00;;;;;;6255128;28;20289;-81
2024/01/18 03:35:02;;;;;;;27.77;19.23;;;-1.30;73.20;;;;;;6262258;28;20746;-79
2024/01/18 03:38:06;;;;;;;23.77;18.40;;;-1.50;73.30;;;;;;6257624;28;20730;-81
2024/01/18 03:41:09;;;;;;;25.93;19.63;;;-1.50;73.50;;;;;;6247147;28;20355;-79
2024/01/18 03:44:13;;;;;;;24.77;19.50;;;-1.40;73.50;;;;;;6255419;28;20231;-81
2024/01/18 03:47:16;;;;;;;24.60;18.30;;;-1.40;73.60;;;;;;6257463;28;20747;-79
2024/01/18 03:50:20;;;;;;;24.93;18.70;;;-1.50;73.70;;;;;;6247574;28;20788;-80
2024/01/18 03:53:23;;;;;;;24.23;18.67;;;-1.40;73.30;;;;;;6245407;28;20295;-78
2024/01/18 03:56:26;;;;;;;26.07;19.07;;;-1.50;73.30;;;;;;6255439;28;20230;-78
2024/01/18 03:59:30;;;;;;;23.30;18.63;;;-1.50;73.40;;;;;;6238485;28;20237;-81
2024/01/18 04:02:34;;;;;;;25.33;19.03;;;-1.50;73.60;;;;;;6269810;28;20647;-80
2024/01/18 04:05:37;;;;;;;23.87;19.00;;;-1.50;73.50;;;;;;6262876;28;20242;-79
2024/01/18 04:08:40;;;;;;;24.27;19.13;;;-1.50;73.50;;;;;;6257637;28;20245;-81
2024/01/18 04:11:43;;;;;;;26.93;19.23;;;-1.50;73.80;;;;;;6265266;28;20265;-80
2024/01/18 04:14:48;;;;;;;24.63;18.30;;;-1.50;74.00;;;;;;6246622;28;20242;-80
2024/01/18 04:17:51;;;;;;;25.00;19.20;;;-1.50;73.80;;;;;;6243752;28;20974;-78
2024/01/18 04:20:54;;;;;;;27.63;20.17;;;-1.50;73.80;;;;;;6260510;28;20238;-79
2024/01/18 04:23:58;;;;;;;25.63;18.77;;;-1.50;74.10;;;;;;6262498;28;20230;-78
2024/01/18 04:27:01;;;;;;;28.73;20.70;;;-1.50;74.20;;;;;;6256956;28;20245;-79
2024/01/18 04:30:08;;;;;;;30.90;20.60;;;-1.50;74.00;;;;;;6252558;28;20234;-80
2024/01/18 04:33:11;;;;;;;24.87;18.93;;;-1.60;74.20;;;;;;6257894;28;20242;-79
2024/01/18 04:36:14;;;;;;;25.43;19.03;;;-1.60;74.30;;;;;;6253067;28;20242;-78
2024/01/18 04:39:17;;;;;;;27.97;19.27;;;-1.60;74.30;;;;;;6266618;28;20237;-78
2024/01/18 04:42:21;;;;;;;28.13;19.97;;;-1.60;74.40;;;;;;6261379;28;20245;-80
2024/01/18 04:45:25;;;;;;;25.10;18.53;;;-1.60;74.40;;;;;;6257553;28;20245;-80
2024/01/18 04:48:29;;;;;;;24.90;19.80;;;-1.50;74.40;;;;;;6261353;28;20280;-79
2024/01/18 04:51:32;;;;;;;21.80;19.50;;;-1.50;74.40;;;;;;6257430;28;20233;-79
2024/01/18 04:54:35;;;;;;;23.97;19.73;;;-1.60;74.50;;;;;;6273231;28;20863;-79
2024/01/18 04:57:39;;;;;;;25.43;19.43;;;-1.60;74.60;;;;;;6264713;28;20287;-80
2024/01/18 05:00:44;;;;;;;24.80;19.97;;;-1.60;74.70;;;;;;6248760;28;20496;-80
2024/01/18 05:03:47;;;;;;;19.73;17.43;;;-1.60;74.80;;;;;;6257714;28;20229;-80
2024/01/18 05:06:50;;;;;;;25.87;18.90;;;-1.50;74.80;;;;;;6259609;28;20234;-80
2024/01/18 05:09:54;;;;;;;28.37;20.87;;;-1.50;74.80;;;;;;6266247;28;20241;-81
2024/01/18 05:12:57;;;;;;;29.23;21.07;;;-1.50;74.80;;;;;;6257622;28;20778;-80
2024/01/18 05:16:02;;;;;;;26.37;20.27;;;-1.50;74.80;;;;;;6262662;28;20253;-78
2024/01/18 05:19:05;;;;;;;27.90;20.13;;;-1.60;74.90;;;;;;6255847;28;20294;-79
2024/01/18 05:22:09;;;;;;;28.47;20.60;;;-1.70;74.90;;;;;;6260428;28;20716;-80
2024/01/18 05:25:13;;;;;;;27.73;21.57;;;-1.60;75.00;;;;;;6252779;28;20237;-79
2024/01/18 05:28:16;;;;;;;28.07;19.77;;;-1.60;75.00;;;;;;6255506;28;20245;-79
2024/01/18 05:31:21;;;;;;;28.30;22.10;;;-1.60;75.10;;;;;;6256817;28;20892;-79
2024/01/18 05:34:24;;;;;;;25.47;19.53;;;-1.60;75.10;;;;;;6255605;28;20337;-80
2024/01/18 05:37:28;;;;;;;34.33;22.07;;;-1.60;75.10;;;;;;6253501;28;20258;-79
2024/01/18 05:40:31;;;;;;;29.33;21.27;;;-1.60;74.90;;;;;;6261467;28;20284;-79
2024/01/18 05:43:34;;;;;;;28.07;20.93;;;-1.60;74.80;;;;;;6229206;28;20313;-79
2024/01/18 05:46:39;;;;;;;31.40;21.73;;;-1.60;75.10;;;;;;6256349;28;20321;-78
2024/01/18 05:49:42;;;;;;;29.77;20.50;;;-1.60;75.20;;;;;;6249374;28;20914;-77
2024/01/18 05:52:45;;;;;;;30.33;21.80;;;-1.60;75.00;;;;;;6237371;28;20257;-80
2024/01/18 05:55:48;;;;;;;30.13;21.27;;;-1.60;74.80;;;;;;6257584;28;20235;-77
2024/01/18 05:58:51;;;;;;;29.57;22.13;;;-1.60;74.90;;;;;;6252362;28;20234;-81
2024/01/18 06:01:56;;;;;;;27.73;20.23;;;-1.70;74.70;;;;;;6259494;28;20838;-78
2024/01/18 06:05:00;;;;;;;27.73;21.00;;;-1.60;74.80;;;;;;6260428;28;20491;-77
2024/01/18 06:08:04;;;;;;;29.97;21.90;;;-1.60;74.70;;;;;;6260522;28;20233;-79
2024/01/18 06:11:08;;;;;;;28.27;22.07;;;-1.60;74.50;;;;;;6265926;28;20226;-77
2024/01/18 06:14:11;;;;;;;30.23;21.13;;;-1.70;74.50;;;;;;6257704;28;20234;-77
2024/01/18 06:17:16;;;;;;;29.43;20.13;;;-1.70;74.50;;;;;;6253834;28;20277;-79
2024/01/18 06:20:19;;;;;;;29.27;21.50;;;-1.80;74.50;;;;;;6244345;28;20337;-78
2024/01/18 06:23:22;;;;;;;26.23;20.77;;;-1.70;74.60;;;;;;6259330;28;20237;-78
2024/01/18 06:26:26;;;;;;;28.37;21.73;;;-1.70;74.30;;;;;;6250224;28;20242;-78
2024/01/18 06:29:30;;;;;;;30.80;22.50;;;-1.80;74.70;;;;;;6258931;28;20757;-76
2024/01/18 06:32:35;;;;;;;30.40;21.23;;;-1.80;74.70;;;;;;6250425;28;20852;-77
2024/01/18 06:35:38;;;;;;;30.37;20.80;;;-1.80;74.80;;;;;;6253161;28;20245;-76
2024/01/18 06:38:41;;;;;;;26.47;20.80;;;-1.80;74.80;;;;;;6257061;28;20248;-78
2024/01/18 06:41:44;;;;;;;28.67;22.70;;;-1.80;75.10;;;;;;6263565;28;20286;-78
2024/01/18 06:44:47;;;;;;;30.03;21.40;;;-1.80;75.00;;;;;;6265944;28;20325;-76
2024/01/18 06:47:51;;;;;;;36.93;21.73;;;-1.80;74.70;;;;;;6264358;28;20244;-76
2024/01/18 06:50:55;;;;;;;31.30;21.43;;;-1.80;75.00;;;;;;6263528;28;20736;-74
2024/01/18 06:53:58;;;;;;;25.60;20.60;;;-1.80;75.00;;;;;;6264410;28;20249;-76
2024/01/18 06:57:02;;;;;;;26.33;21.63;;;-1.80;75.10;;;;;;6265289;28;20236;-75
2024/01/18 07:00:06;;;;;;;24.03;20.13;;;-1.70;75.10;;;;;;6263081;28;20629;-76
2024/01/18 07:03:12;;;;;;;30.00;21.70;;;-1.70;75.10;;;;;;6263633;28;20237;-76
2024/01/18 07:06:15;;;;;;;28.77;21.20;;;-1.70;75.10;;;;;;6263182;28;21028;-76
2024/01/18 07:09:18;;;;;;;33.33;21.57;;;-1.70;75.20;;;;;;6266981;28;21034;-78
2024/01/18 07:12:21;;;;;;;33.13;21.87;;;-1.70;75.00;;;;;;6264474;28;20249;-75
2024/01/18 07:15:24;;;;;;;28.93;22.30;;;-1.70;75.00;;;;;;6262870;28;20238;-79
2024/01/18 07:18:29;;;;;;;31.57;21.87;;;-1.70;75.10;;;;;;6268510;28;20522;-79
2024/01/18 07:21:32;;;;;;;31.17;22.67;;;-1.70;75.10;;;;;;6269875;28;20257;-78
2024/01/18 07:24:35;;;;;;;31.57;21.83;;;-1.70;74.90;;;;;;6270284;28;20734;-78
2024/01/18 07:27:39;;;;;;;31.27;22.97;;;-1.70;74.80;;;;;;6270150;28;20259;-80
2024/01/18 07:30:43;;;;;;;31.60;22.57;;;-1.60;74.20;;;;;;6271274;28;20726;-78
2024/01/18 07:33:50;;;;;;;28.33;21.00;;;-1.60;74.30;;;;;;6269959;28;20238;-79
2024/01/18 07:36:54;;;;;;;30.27;22.20;;;-1.70;74.50;;;;;;6274364;28;20261;-79
2024/01/18 07:39:58;;;;;;;30.67;21.13;;;-1.70;74.60;;;;;;6272802;28;20274;-79
2024/01/18 07:43:01;;;;;;;28.83;21.13;;;-1.70;74.70;;;;;;6271314;28;20233;-80
2024/01/18 07:46:05;;;;;;;28.87;21.53;;;-1.70;74.70;;;;;;6271090;28;20237;-80
2024/01/18 07:49:09;;;;;;;26.43;21.27;;;-1.70;74.90;;;;;;6267545;28;20654;-79
2024/01/18 07:52:13;;;;;;;28.20;21.57;;;-1.60;75.00;;;;;;6272092;28;20634;-77
2024/01/18 07:55:16;;;;;;;34.87;22.63;;;-1.60;75.10;;;;;;6272764;28;20238;-81
2024/01/18 07:58:24;;;;;;;33.87;23.03;;;-1.50;75.00;;;;;;6271541;28;20371;-79
2024/01/18 08:01:27;;;;;;;29.20;21.73;;;-1.50;74.60;;;;;;6269598;28;20238;-79
2024/01/18 08:04:35;;;;;;;30.53;22.93;;;-1.50;74.60;;;;;;6272849;28;20242;-79
2024/01/18 08:07:39;;;;;;;30.73;23.00;;;-1.50;74.60;;;;;;6272036;28;20254;-78
2024/01/18 08:10:42;;;;;;;27.00;21.50;;;-1.30;74.30;;;;;;6275043;28;20248;-79
2024/01/18 08:13:46;;;;;;;32.53;22.53;;;-1.30;74.20;;;;;;6275164;28;20245;-79
2024/01/18 08:16:49;;;;;;;32.93;23.93;;;-1.10;74.10;;;;;;6271417;28;20245;-78
2024/01/18 08:19:54;;;;;;;32.77;24.20;;;-1.10;74.00;;;;;;6249209;28;20245;-80
2024/01/18 08:22:58;;;;;;;37.67;24.57;;;-1.10;73.80;;;;;;6267917;28;20237;-79
2024/01/18 08:26:01;;;;;;;37.63;24.60;;;-1.10;73.60;;;;;;6269417;28;20306;-79
2024/01/18 08:29:05;;;;;;;31.37;23.23;;;-1.10;73.40;;;;;;6270354;28;20394;-78
2024/01/18 08:32:08;;;;;;;34.40;25.13;;;-0.90;73.40;;;;;;6256697;28;20952;-80
2024/01/18 08:35:12;;;;;;;31.80;23.57;;;-0.80;72.50;;;;;;6269252;28;21502;-80
2024/01/18 08:38:16;;;;;;;33.73;24.37;;;-0.80;72.60;;;;;;6264894;28;20234;-80
2024/01/18 08:41:19;;;;;;;37.57;24.90;;;-0.80;72.50;;;;;;6270352;28;20244;-79
2024/01/18 08:44:22;;;;;;;28.13;24.37;;;-0.80;72.40;;;;;;6268993;28;20248;-79
2024/01/18 08:47:26;;;;;;;33.43;24.80;;;-0.70;72.20;;;;;;6270778;28;20242;-78
2024/01/18 08:50:31;;;;;;;33.57;23.93;;;-0.70;71.90;;;;;;6267759;28;20265;-79
2024/01/18 08:53:34;;;;;;;31.73;23.77;;;-0.70;71.70;;;;;;6266872;28;20245;-79
2024/01/18 08:56:37;;;;;;;33.63;23.93;;;-0.70;71.90;;;;;;6269680;28;20240;-79
2024/01/18 08:59:41;;;;;;;30.27;23.83;;;-0.60;72.10;;;;;;6267449;28;20237;-81
2024/01/18 09:02:45;;;;;;;32.00;25.70;;;-0.60;72.00;;;;;;6267867;28;20237;-82
2024/01/18 09:05:51;;;;;;;29.40;23.37;;;-0.40;71.30;;;;;;6267441;28;20248;-78
2024/01/18 09:08:54;;;;;;;31.80;24.67;;;-0.30;71.20;;;;;;6269052;28;20695;-78
2024/01/18 09:11:58;;;;;;;31.33;23.67;;;-0.30;70.80;;;;;;6269289;28;20272;-82
2024/01/18 09:15:01;;;;;;;34.17;24.40;;;-0.20;71.10;;;;;;6267164;28;20237;-80
2024/01/18 09:18:04;;;;;;;29.63;23.27;;;-0.10;70.80;;;;;;6257017;28;21512;-79
2024/01/18 09:21:09;;;;;;;28.97;24.00;;;-0.10;70.80;;;;;;6270981;28;20230;-79
2024/01/18 09:24:12;;;;;;;30.47;23.90;;;-0.10;70.90;;;;;;6268215;28;20253;-77
2024/01/18 09:27:16;;;;;;;31.70;24.07;;;0.00;70.90;;;;;;6268360;28;20658;-77
2024/01/18 09:30:19;;;;;;;34.13;23.97;;;0.00;70.40;;;;;;6268173;28;20233;-78
2024/01/18 09:33:22;;;;;;;33.43;23.73;;;0.00;70.80;;;;;;6267895;28;20238;-78
2024/01/18 09:36:27;;;;;;;37.77;24.20;;;-0.10;71.00;;;;;;6268011;28;20245;-81
2024/01/18 09:39:30;;;;;;;29.87;23.20;;;-0.10;71.40;;;;;;6270239;28;20238;-78
2024/01/18 09:42:33;;;;;;;34.90;24.73;;;-0.10;71.50;;;;;;6256821;28;20258;-80
2024/01/18 09:45:40;;;;;;;37.67;24.97;;;0.00;71.30;;;;;;6264819;28;20268;-78
2024/01/18 09:48:44;;;;;;;33.03;24.93;;;0.00;71.20;;;;;;6269701;28;20881;-78
2024/01/18 09:51:49;;;;;;;40.03;25.10;;;0.00;71.30;;;;;;6269284;28;20356;-78
2024/01/18 09:54:52;;;;;;;32.80;24.33;;;0.00;71.00;;;;;;6263845;28;20294;-77
2024/01/18 09:57:58;;;;;;;31.67;23.70;;;-0.10;71.10;;;;;;6267690;28;20294;-79
2024/01/18 10:01:04;;;;;;;34.70;26.10;;;-0.10;71.50;;;;;;6261155;28;20269;-78
2024/01/18 10:04:10;;;;;;;32.70;24.77;;;-0.10;71.50;;;;;;6268540;28;20234;-80
2024/01/18 10:07:14;;;;;;;38.33;26.13;;;-0.10;71.40;;;;;;6269278;28;20378;-78
2024/01/18 10:10:18;;;;;;;34.93;25.10;;;0.00;71.40;;;;;;6269289;28;20329;-78
2024/01/18 10:13:22;;;;;;;36.50;25.93;;;-0.10;71.50;;;;;;6269446;28;20245;-80
2024/01/18 10:16:29;;;;;;;35.00;25.20;;;-0.10;71.50;;;;;;6271162;28;20308;-80
2024/01/18 10:19:32;;;;;;;35.13;25.43;;;0.00;71.60;;;;;;6272426;28;20233;-80
2024/01/18 10:22:37;;;;;;;31.03;25.27;;;0.00;71.30;;;;;;6267341;28;20303;-79
2024/01/18 10:25:41;;;;;;;32.93;24.53;;;0.00;71.40;;;;;;6266256;28;20249;-79
2024/01/18 10:28:44;;;;;;;32.53;25.70;;;0.10;71.40;;;;;;6268355;28;20348;-77
2024/01/18 10:31:47;;;;;;;33.53;25.43;;;0.20;71.40;;;;;;6267853;28;20308;-79
2024/01/18 10:34:51;;;;;;;45.00;27.13;;;0.20;71.60;;;;;;6268706;28;20264;-80
2024/01/18 10:38:03;;;;;;;35.67;26.40;;;0.10;71.40;;;;;;6266686;28;20847;-80
2024/01/18 10:41:07;;;;;;;31.37;24.87;;;0.20;71.50;;;;;;6268863;28;20230;-80
2024/01/18 10:44:13;;;;;;;35.17;25.93;;;0.20;71.60;;;;;;6263430;28;20324;-80
2024/01/18 10:47:16;;;;;;;31.37;25.43;;;0.40;71.40;;;;;;6265494;28;20313;-77
2024/01/18 10:50:20;;;;;;;38.00;27.37;;;0.30;70.70;;;;;;6267970;28;20803;-80
2024/01/18 10:53:26;;;;;;;35.03;25.37;;;0.20;70.60;;;;;;6270320;28;20319;-77
2024/01/18 10:56:29;;;;;;;34.67;26.47;;;0.10;71.00;;;;;;6270409;28;21012;-79
2024/01/18 10:59:32;;;;;;;38.33;27.00;;;0.00;70.80;;;;;;6272878;28;20894;-77
2024/01/18 11:02:40;;;;;;;37.10;26.87;;;0.00;71.50;;;;;;6271711;28;20248;-78
2024/01/18 11:05:45;;;;;;;43.87;26.67;;;0.20;70.90;;;;;;6268068;28;20864;-77
2024/01/18 11:08:50;;;;;;;33.97;27.10;;;0.00;71.40;;;;;;6272805;28;21480;-77
2024/01/18 11:11:56;;;;;;;40.40;27.67;;;0.10;71.50;;;;;;6273390;28;20238;-76
2024/01/18 11:14:59;;;;;;;38.60;26.77;;;0.00;71.30;;;;;;6273609;28;20611;-79
2024/01/18 11:18:16;;;;;;;30.70;25.67;;;0.00;71.50;;;;;;6265512;28;20237;-78
2024/01/18 11:21:49;;;;;;;34.03;27.53;;;0.20;71.70;;;;;;6271143;28;20221;-80
2024/01/18 11:25:10;;;;;;;37.93;27.23;;;0.10;71.50;;;;;;6227634;28;20234;-78
2024/01/18 11:28:22;;;;;;;37.97;26.97;;;0.20;70.80;;;;;;6270610;28;20240;-79
2024/01/18 11:31:44;;;;;;;35.90;26.73;;;0.20;71.20;;;;;;6272345;28;20233;-78
2024/01/18 11:34:49;;;;;;;39.50;26.70;;;0.00;71.50;;;;;;6274117;28;20257;-78
2024/01/18 11:37:52;;;;;;;40.43;28.10;;;0.10;71.40;;;;;;6272201;28;20234;-77
2024/01/18 11:41:04;;;;;;;35.70;26.90;;;0.00;71.60;;;;;;6270080;28;21542;-79
2024/01/18 11:44:10;;;;;;;33.03;24.40;;;0.20;71.50;;;;;;6272324;28;20240;-79
2024/01/18 11:47:13;;;;;;;46.13;28.03;;;0.10;71.70;;;;;;6264587;28;20253;-77
2024/01/18 11:50:17;;;;;;;39.47;27.57;;;0.20;71.60;;;;;;6272810;28;20275;-80
2024/01/18 11:53:20;;;;;;;37.30;28.10;;;0.10;71.40;;;;;;6267623;28;20348;-80
2024/01/18 11:56:26;;;;;;;36.17;25.97;;;0.00;72.00;;;;;;6262391;28;20313;-79
2024/01/18 11:59:32;;;;;;;37.80;27.50;;;-0.10;72.60;;;;;;6269376;28;20230;-80
2024/01/18 12:02:35;;;;;;;35.90;27.67;;;-0.10;72.60;;;;;;6269208;28;20236;-77
2024/01/18 12:05:39;;;;;;;36.17;26.73;;;0.00;72.50;;;;;;6268170;28;20751;-82
2024/01/18 12:08:44;;;;;;;43.40;29.33;;;0.00;72.30;;;;;;6270605;28;20237;-80
2024/01/18 12:11:49;;;;;;;41.33;29.37;;;0.00;72.50;;;;;;6267436;28;20233;-80
2024/01/18 12:14:52;;;;;;;36.00;27.63;;;-0.10;72.40;;;;;;6269787;28;20298;-80
2024/01/18 12:17:56;;;;;;;42.53;30.47;;;-0.10;72.60;;;;;;6260574;28;20229;-78
2024/01/18 12:21:04;;;;;;;38.93;28.57;;;-0.10;72.60;;;;;;6262902;28;20234;-80
2024/01/18 12:24:07;;;;;;;43.43;29.83;;;-0.10;72.70;;;;;;6268313;28;21457;-79
2024/01/18 12:27:13;;;;;;;44.37;30.17;;;-0.20;72.50;;;;;;6268467;28;20783;-80
2024/01/18 12:30:16;;;;;;;46.13;30.50;;;-0.30;72.90;;;;;;6267450;28;20241;-78
2024/01/18 12:33:20;;;;;;;41.37;28.27;;;-0.40;73.50;;;;;;6268620;28;20637;-77
2024/01/18 12:36:23;;;;;;;45.23;29.70;;;-0.40;73.60;;;;;;6268189;28;20866;-80
2024/01/18 12:39:26;;;;;;;39.10;29.23;;;-0.30;73.70;;;;;;6269937;28;20222;-78
2024/01/18 12:42:33;;;;;;;46.10;29.87;;;-0.20;73.30;;;;;;6264551;28;20237;-79
2024/01/18 12:45:36;;;;;;;36.97;26.57;;;-0.10;73.20;;;;;;6267179;28;20238;-78
2024/01/18 12:48:39;;;;;;;40.60;29.10;;;-0.10;72.90;;;;;;6257864;28;20853;-79
2024/01/18 12:51:43;;;;;;;39.43;27.23;;;-0.10;72.40;;;;;;6267520;28;20249;-77
2024/01/18 12:54:47;;;;;;;40.77;26.57;;;-0.10;72.60;;;;;;6269080;28;20233;-80
2024/01/18 12:57:52;;;;;;;37.63;26.03;;;0.00;72.40;;;;;;6267709;28;20238;-80
2024/01/18 13:00:55;;;;;;;40.33;26.53;;;0.00;72.70;;;;;;6259660;28;20237;-79
2024/01/18 13:04:13;;;;;;;39.87;27.17;;;0.20;72.80;;;;;;6265843;28;20244;-79
2024/01/18 13:07:16;;;;;;;37.33;27.37;;;0.30;71.80;;;;;;6269535;28;20258;-78
2024/01/18 13:10:21;;;;;;;31.67;25.17;;;0.30;71.40;;;;;;6270133;28;20350;-81
2024/01/18 13:13:25;;;;;;;36.77;26.27;;;0.30;71.40;;;;;;6268236;28;20438;-79
2024/01/18 13:16:29;;;;;;;35.00;25.00;;;0.40;71.10;;;;;;6267089;28;20364;-79
2024/01/18 13:19:32;;;;;;;34.33;25.53;;;0.40;70.70;;;;;;6266647;28;20225;-79
2024/01/18 13:22:35;;;;;;;35.13;24.77;;;0.40;70.60;;;;;;6269974;28;20375;-78
2024/01/18 13:25:39;;;;;;;33.73;24.43;;;0.30;71.00;;;;;;6270300;28;20350;-77
2024/01/18 13:28:43;;;;;;;34.13;25.50;;;0.40;70.60;;;;;;6257315;28;20336;-77
2024/01/18 13:31:47;;;;;;;28.57;23.50;;;0.50;70.50;;;;;;6266595;28;20325;-78
2024/01/18 13:34:51;;;;;;;31.80;21.47;;;0.50;70.40;;;;;;6268946;28;20256;-79
2024/01/18 13:37:54;;;;;;;33.73;22.20;;;0.50;70.10;;;;;;6267878;28;20233;-79
2024/01/18 13:40:57;;;;;;;32.73;23.97;;;0.60;69.40;;;;;;6270810;28;20266;-78
2024/01/18 13:44:02;;;;;;;35.93;24.97;;;0.60;69.50;;;;;;6268279;28;20244;-80
2024/01/18 13:47:06;;;;;;;30.13;23.73;;;0.50;70.00;;;;;;6268853;28;20299;-78
2024/01/18 13:50:10;;;;;;;31.40;22.27;;;0.30;70.20;;;;;;6257764;28;20360;-78
2024/01/18 13:53:18;;;;;;;29.93;23.57;;;0.40;70.30;;;;;;6268887;28;20873;-78
2024/01/18 13:56:22;;;;;;;31.10;23.27;;;0.40;69.90;;;;;;6266377;28;20237;-81
2024/01/18 13:59:27;;;;;;;29.53;21.67;;;0.30;70.20;;;;;;6261224;28;20238;-78
2024/01/18 14:02:30;;;;;;;32.17;22.30;;;0.20;70.50;;;;;;6261501;28;20391;-79
2024/01/18 14:05:33;;;;;;;31.10;22.77;;;0.20;70.40;;;;;;6260993;28;20261;-80
2024/01/18 14:08:36;;;;;;;27.50;21.03;;;0.20;70.50;;;;;;6268666;28;20336;-80
2024/01/18 14:11:39;;;;;;;33.40;22.03;;;0.30;70.20;;;;;;6265884;28;20325;-80
2024/01/18 14:14:44;;;;;;;26.77;21.30;;;0.30;70.30;;;;;;6265951;28;20261;-81
2024/01/18 14:17:47;;;;;;;26.87;21.33;;;0.20;70.20;;;;;;6266987;28;20331;-78
2024/01/18 14:20:50;;;;;;;30.80;23.23;;;0.10;70.50;;;;;;6267242;28;20238;-80
2024/01/18 14:23:53;;;;;;;30.10;21.90;;;0.00;70.80;;;;;;6269238;28;20241;-79
2024/01/18 14:26:56;;;;;;;32.67;22.43;;;0.00;70.90;;;;;;6267012;28;20241;-79
2024/01/18 14:30:01;;;;;;;33.80;22.90;;;0.00;70.90;;;;;;6247576;28;20272;-81
2024/01/18 14:33:05;;;;;;;29.80;21.67;;;-0.10;71.50;;;;;;6268471;28;20237;-77
2024/01/18 14:36:08;;;;;;;27.73;21.03;;;-0.20;72.00;;;;;;6270298;28;20257;-77
2024/01/18 14:39:15;;;;;;;27.03;21.30;;;-0.10;71.70;;;;;;6268366;28;20328;-77
2024/01/18 14:42:18;;;;;;;31.63;22.60;;;-0.10;71.80;;;;;;6265638;28;20236;-80
2024/01/18 14:45:23;;;;;;;28.93;21.43;;;-0.20;72.00;;;;;;6266858;28;20307;-78
2024/01/18 14:48:26;;;;;;;37.37;23.07;;;-0.20;72.20;;;;;;6265593;28;20393;-81
2024/01/18 14:51:29;;;;;;;29.13;21.63;;;-0.30;72.30;;;;;;6265939;28;20241;-80
2024/01/18 14:54:32;;;;;;;25.40;20.63;;;-0.30;72.50;;;;;;6266905;28;20242;-83
2024/01/18 14:57:37;;;;;;;30.73;21.17;;;-0.30;72.50;;;;;;6260930;28;20229;-79
2024/01/18 15:00:43;;;;;;;26.93;21.40;;;-0.30;72.80;;;;;;6262382;28;20321;-79
2024/01/18 15:03:46;;;;;;;25.67;21.07;;;-0.40;72.90;;;;;;6268819;28;20236;-80
2024/01/18 15:06:50;;;;;;;30.63;21.50;;;-0.40;73.00;;;;;;6268953;28;20321;-80
2024/01/18 15:09:53;;;;;;;27.67;20.63;;;-0.50;73.20;;;;;;6266200;28;20241;-79
2024/01/18 15:12:57;;;;;;;33.17;22.17;;;-0.50;73.00;;;;;;6269486;28;20242;-81
2024/01/18 15:16:02;;;;;;;28.23;22.30;;;-0.50;73.30;;;;;;6266202;28;20324;-79
2024/01/18 15:19:11;;;;;;;32.90;22.00;;;-0.50;73.30;;;;;;6268843;28;20237;-81
2024/01/18 15:22:19;;;;;;;31.03;22.17;;;-0.60;73.60;;;;;;6269523;28;20358;-78
2024/01/18 15:25:22;;;;;;;31.77;22.00;;;-0.70;73.80;;;;;;6266597;28;20326;-80
2024/01/18 15:28:26;;;;;;;34.00;22.63;;;-0.70;73.80;;;;;;6269266;28;20241;-81
2024/01/18 15:31:31;;;;;;;30.20;20.90;;;-0.70;74.10;;;;;;6275723;28;21529;-79
2024/01/18 15:34:34;;;;;;;30.67;22.67;;;-0.70;74.00;;;;;;6272484;28;20241;-81